sensor_id;sensor_type;location;lat;lon;timestamp;pressure;altitude;pressure_sealevel;temperature
68588;BMP180;55560;52.174;20.996;2023-06-14T00:01:30;100671.20;;;14.30
68588;BMP180;55560;52.174;20.996;2023-06-14T00:03:58;100674.80;;;14.30
68588;BMP180;55560;52.174;20.996;2023-06-14T00:06:25;100669.40;;;14.30
68588;BMP180;55560;52.174;20.996;2023-06-14T00:08:53;100668.20;;;14.30
68588;BMP180;55560;52.174;20.996;2023-06-14T00:11:20;100664.20;;;14.30
68588;BMP180;55560;52.174;20.996;2023-06-14T00:13:47;100662.60;;;14.30
68588;BMP180;55560;52.174;20.996;2023-06-14T00:16:14;100666.60;;;14.30
68588;BMP180;55560;52.174;20.996;2023-06-14T00:18:45;100666.00;;;14.30
68588;BMP180;55560;52.174;20.996;2023-06-14T00:21:12;100662.00;;;14.30
68588;BMP180;55560;52.174;20.996;2023-06-14T00:23:38;100662.00;;;14.30
68588;BMP180;55560;52.174;20.996;2023-06-14T00:26:05;100658.00;;;14.30
68588;BMP180;55560;52.174;20.996;2023-06-14T00:28:32;100658.80;;;14.30
68588;BMP180;55560;52.174;20.996;2023-06-14T00:30:58;100659.00;;;14.30
68588;BMP180;55560;52.174;20.996;2023-06-14T00:33:25;100660.80;;;14.30
68588;BMP180;55560;52.174;20.996;2023-06-14T00:35:52;100650.40;;;14.20
68588;BMP180;55560;52.174;20.996;2023-06-14T00:38:22;100648.80;;;14.20
68588;BMP180;55560;52.174;20.996;2023-06-14T00:40:48;100648.00;;;14.20
68588;BMP180;55560;52.174;20.996;2023-06-14T00:43:15;100652.80;;;14.20
68588;BMP180;55560;52.174;20.996;2023-06-14T00:45:42;100650.80;;;14.20
68588;BMP180;55560;52.174;20.996;2023-06-14T00:48:10;100650.20;;;14.20
68588;BMP180;55560;52.174;20.996;2023-06-14T00:50:38;100650.80;;;14.16
68588;BMP180;55560;52.174;20.996;2023-06-14T00:53:04;100657.00;;;14.10
68588;BMP180;55560;52.174;20.996;2023-06-14T00:55:32;100658.00;;;14.10
68588;BMP180;55560;52.174;20.996;2023-06-14T00:57:59;100654.60;;;14.10
68588;BMP180;55560;52.174;20.996;2023-06-14T01:00:26;100658.40;;;14.10
68588;BMP180;55560;52.174;20.996;2023-06-14T01:02:55;100655.40;;;14.10
68588;BMP180;55560;52.174;20.996;2023-06-14T01:05:23;100655.00;;;14.10
68588;BMP180;55560;52.174;20.996;2023-06-14T01:08:28;100659.00;;;14.10
68588;BMP180;55560;52.174;20.996;2023-06-14T01:11:05;100655.80;;;14.08
68588;BMP180;55560;52.174;20.996;2023-06-14T01:13:38;100653.20;;;14.10
68588;BMP180;55560;52.174;20.996;2023-06-14T01:16:07;100654.60;;;14.02
68588;BMP180;55560;52.174;20.996;2023-06-14T01:18:34;100656.60;;;14.00
68588;BMP180;55560;52.174;20.996;2023-06-14T01:21:01;100657.80;;;14.00
68588;BMP180;55560;52.174;20.996;2023-06-14T01:23:32;100659.80;;;14.00
68588;BMP180;55560;52.174;20.996;2023-06-14T01:26:01;100660.60;;;14.00
68588;BMP180;55560;52.174;20.996;2023-06-14T01:28:33;100655.40;;;14.00
68588;BMP180;55560;52.174;20.996;2023-06-14T01:31:03;100653.40;;;14.06
68588;BMP180;55560;52.174;20.996;2023-06-14T01:33:35;100652.00;;;14.08
68588;BMP180;55560;52.174;20.996;2023-06-14T01:36:04;100651.00;;;14.00
68588;BMP180;55560;52.174;20.996;2023-06-14T01:38:32;100646.20;;;14.02
68588;BMP180;55560;52.174;20.996;2023-06-14T01:41:00;100650.80;;;14.02
68588;BMP180;55560;52.174;20.996;2023-06-14T01:43:32;100645.20;;;14.02
68588;BMP180;55560;52.174;20.996;2023-06-14T01:46:00;100648.40;;;14.10
68588;BMP180;55560;52.174;20.996;2023-06-14T01:48:27;100648.40;;;14.10
68588;BMP180;55560;52.174;20.996;2023-06-14T01:50:54;100646.40;;;14.10
68588;BMP180;55560;52.174;20.996;2023-06-14T01:53:20;100649.20;;;14.06
68588;BMP180;55560;52.174;20.996;2023-06-14T01:55:47;100643.40;;;14.08
68588;BMP180;55560;52.174;20.996;2023-06-14T01:58:15;100642.00;;;14.06
68588;BMP180;55560;52.174;20.996;2023-06-14T02:00:45;100637.40;;;14.00
68588;BMP180;55560;52.174;20.996;2023-06-14T02:03:11;100630.40;;;14.00
68588;BMP180;55560;52.174;20.996;2023-06-14T02:05:39;100631.40;;;14.06
68588;BMP180;55560;52.174;20.996;2023-06-14T02:08:06;100627.00;;;14.08
68588;BMP180;55560;52.174;20.996;2023-06-14T02:10:34;100628.40;;;14.04
68588;BMP180;55560;52.174;20.996;2023-06-14T02:13:03;100623.80;;;14.04
68588;BMP180;55560;52.174;20.996;2023-06-14T02:15:29;100619.80;;;14.00
68588;BMP180;55560;52.174;20.996;2023-06-14T02:18:02;100620.20;;;14.00
68588;BMP180;55560;52.174;20.996;2023-06-14T02:20:32;100627.60;;;14.02
68588;BMP180;55560;52.174;20.996;2023-06-14T02:23:00;100627.20;;;14.10
68588;BMP180;55560;52.174;20.996;2023-06-14T02:25:26;100629.20;;;14.10
68588;BMP180;55560;52.174;20.996;2023-06-14T02:27:55;100632.20;;;14.10
68588;BMP180;55560;52.174;20.996;2023-06-14T02:30:22;100634.00;;;14.10
68588;BMP180;55560;52.174;20.996;2023-06-14T02:32:49;100635.00;;;14.10
68588;BMP180;55560;52.174;20.996;2023-06-14T02:35:17;100638.40;;;14.10
68588;BMP180;55560;52.174;20.996;2023-06-14T02:37:44;100635.80;;;14.10
68588;BMP180;55560;52.174;20.996;2023-06-14T02:40:14;100635.60;;;14.10
68588;BMP180;55560;52.174;20.996;2023-06-14T02:42:41;100631.20;;;14.10
68588;BMP180;55560;52.174;20.996;2023-06-14T02:45:08;100634.80;;;14.10
68588;BMP180;55560;52.174;20.996;2023-06-14T02:47:35;100627.20;;;14.10
68588;BMP180;55560;52.174;20.996;2023-06-14T02:50:03;100628.80;;;14.10
68588;BMP180;55560;52.174;20.996;2023-06-14T02:52:30;100620.40;;;14.16
68588;BMP180;55560;52.174;20.996;2023-06-14T02:54:56;100621.60;;;14.20
68588;BMP180;55560;52.174;20.996;2023-06-14T02:57:23;100612.80;;;14.20
68588;BMP180;55560;52.174;20.996;2023-06-14T02:59:50;100618.00;;;14.20
68588;BMP180;55560;52.174;20.996;2023-06-14T03:02:16;100616.80;;;14.20
68588;BMP180;55560;52.174;20.996;2023-06-14T03:04:43;100608.80;;;14.20
68588;BMP180;55560;52.174;20.996;2023-06-14T03:07:13;100606.40;;;14.20
68588;BMP180;55560;52.174;20.996;2023-06-14T03:09:41;100610.40;;;14.20
68588;BMP180;55560;52.174;20.996;2023-06-14T03:12:10;100605.40;;;14.22
68588;BMP180;55560;52.174;20.996;2023-06-14T03:14:37;100605.20;;;14.26
68588;BMP180;55560;52.174;20.996;2023-06-14T03:17:05;100602.80;;;14.26
68588;BMP180;55560;52.174;20.996;2023-06-14T03:19:33;100606.80;;;14.30
68588;BMP180;55560;52.174;20.996;2023-06-14T03:22:00;100601.60;;;14.20
68588;BMP180;55560;52.174;20.996;2023-06-14T03:24:27;100611.40;;;14.30
68588;BMP180;55560;52.174;20.996;2023-06-14T03:26:54;100610.60;;;14.30
68588;BMP180;55560;52.174;20.996;2023-06-14T03:29:21;100609.40;;;14.30
68588;BMP180;55560;52.174;20.996;2023-06-14T03:32:02;100613.20;;;14.30
68588;BMP180;55560;52.174;20.996;2023-06-14T03:34:35;100613.20;;;14.30
68588;BMP180;55560;52.174;20.996;2023-06-14T03:37:02;100617.80;;;14.30
68588;BMP180;55560;52.174;20.996;2023-06-14T03:39:29;100616.00;;;14.40
68588;BMP180;55560;52.174;20.996;2023-06-14T03:41:55;100611.20;;;14.40
68588;BMP180;55560;52.174;20.996;2023-06-14T03:44:22;100613.60;;;14.40
68588;BMP180;55560;52.174;20.996;2023-06-14T03:46:50;100614.20;;;14.40
68588;BMP180;55560;52.174;20.996;2023-06-14T03:49:18;100613.60;;;14.40
68588;BMP180;55560;52.174;20.996;2023-06-14T03:51:45;100614.00;;;14.40
68588;BMP180;55560;52.174;20.996;2023-06-14T03:54:17;100611.40;;;14.44
68588;BMP180;55560;52.174;20.996;2023-06-14T03:57:04;100609.20;;;14.50
68588;BMP180;55560;52.174;20.996;2023-06-14T03:59:32;100608.60;;;14.50
68588;BMP180;55560;52.174;20.996;2023-06-14T04:01:59;100610.40;;;14.50
68588;BMP180;55560;52.174;20.996;2023-06-14T04:04:25;100618.60;;;14.56
68588;BMP180;55560;52.174;20.996;2023-06-14T04:06:57;100619.60;;;14.60
68588;BMP180;55560;52.174;20.996;2023-06-14T04:09:25;100617.60;;;14.60
68588;BMP180;55560;52.174;20.996;2023-06-14T04:11:52;100618.80;;;14.70
68588;BMP180;55560;52.174;20.996;2023-06-14T04:14:19;100626.00;;;14.70
68588;BMP180;55560;52.174;20.996;2023-06-14T04:16:48;100622.60;;;14.80
68588;BMP180;55560;52.174;20.996;2023-06-14T04:19:16;100626.80;;;14.86
68588;BMP180;55560;52.174;20.996;2023-06-14T04:21:43;100627.80;;;14.90
68588;BMP180;55560;52.174;20.996;2023-06-14T04:24:10;100629.80;;;15.00
68588;BMP180;55560;52.174;20.996;2023-06-14T04:26:45;100626.80;;;15.00
68588;BMP180;55560;52.174;20.996;2023-06-14T04:29:14;100625.00;;;15.00
68588;BMP180;55560;52.174;20.996;2023-06-14T04:31:45;100623.20;;;15.00
68588;BMP180;55560;52.174;20.996;2023-06-14T04:34:12;100613.60;;;15.00
68588;BMP180;55560;52.174;20.996;2023-06-14T04:36:53;100614.60;;;15.10
68588;BMP180;55560;52.174;20.996;2023-06-14T04:39:27;100614.80;;;15.10
68588;BMP180;55560;52.174;20.996;2023-06-14T04:41:54;100615.00;;;15.20
68588;BMP180;55560;52.174;20.996;2023-06-14T04:44:23;100619.60;;;15.28
68588;BMP180;55560;52.174;20.996;2023-06-14T04:47:00;100618.00;;;15.30
68588;BMP180;55560;52.174;20.996;2023-06-14T04:49:26;100617.20;;;15.40
68588;BMP180;55560;52.174;20.996;2023-06-14T04:51:56;100614.80;;;15.40
68588;BMP180;55560;52.174;20.996;2023-06-14T04:54:33;100616.80;;;15.48
68588;BMP180;55560;52.174;20.996;2023-06-14T04:57:04;100617.40;;;15.50
68588;BMP180;55560;52.174;20.996;2023-06-14T04:59:32;100620.60;;;15.50
68588;BMP180;55560;52.174;20.996;2023-06-14T05:02:02;100618.60;;;15.50
68588;BMP180;55560;52.174;20.996;2023-06-14T05:04:28;100622.20;;;15.50
68588;BMP180;55560;52.174;20.996;2023-06-14T05:06:57;100626.40;;;15.60
68588;BMP180;55560;52.174;20.996;2023-06-14T05:09:24;100626.60;;;15.60
68588;BMP180;55560;52.174;20.996;2023-06-14T05:11:52;100626.20;;;15.60
68588;BMP180;55560;52.174;20.996;2023-06-14T05:14:18;100630.40;;;15.60
68588;BMP180;55560;52.174;20.996;2023-06-14T05:16:46;100629.00;;;15.60
68588;BMP180;55560;52.174;20.996;2023-06-14T05:19:15;100630.20;;;15.70
68588;BMP180;55560;52.174;20.996;2023-06-14T05:21:41;100632.80;;;15.70
68588;BMP180;55560;52.174;20.996;2023-06-14T05:24:09;100632.40;;;15.70
68588;BMP180;55560;52.174;20.996;2023-06-14T05:26:37;100633.20;;;15.70
68588;BMP180;55560;52.174;20.996;2023-06-14T05:29:04;100629.40;;;15.70
68588;BMP180;55560;52.174;20.996;2023-06-14T05:31:31;100632.60;;;15.70
68588;BMP180;55560;52.174;20.996;2023-06-14T05:33:58;100633.20;;;15.80
68588;BMP180;55560;52.174;20.996;2023-06-14T05:36:25;100640.40;;;15.80
68588;BMP180;55560;52.174;20.996;2023-06-14T05:38:52;100634.00;;;15.90
68588;BMP180;55560;52.174;20.996;2023-06-14T05:41:25;100634.20;;;15.92
68588;BMP180;55560;52.174;20.996;2023-06-14T05:43:54;100636.00;;;15.90
68588;BMP180;55560;52.174;20.996;2023-06-14T05:46:22;100636.00;;;15.90
68588;BMP180;55560;52.174;20.996;2023-06-14T05:48:52;100642.00;;;15.90
68588;BMP180;55560;52.174;20.996;2023-06-14T05:51:19;100635.80;;;15.90
68588;BMP180;55560;52.174;20.996;2023-06-14T05:53:47;100638.60;;;15.90
68588;BMP180;55560;52.174;20.996;2023-06-14T05:56:15;100636.00;;;15.90
68588;BMP180;55560;52.174;20.996;2023-06-14T05:58:45;100634.60;;;15.90
68588;BMP180;55560;52.174;20.996;2023-06-14T06:01:12;100632.00;;;15.90
68588;BMP180;55560;52.174;20.996;2023-06-14T06:03:42;100632.20;;;16.00
68588;BMP180;55560;52.174;20.996;2023-06-14T06:06:12;100632.40;;;16.00
68588;BMP180;55560;52.174;20.996;2023-06-14T06:08:39;100637.20;;;16.10
68588;BMP180;55560;52.174;20.996;2023-06-14T06:11:07;100632.80;;;16.26
68588;BMP180;55560;52.174;20.996;2023-06-14T06:13:33;100634.80;;;16.48
68588;BMP180;55560;52.174;20.996;2023-06-14T06:16:04;100629.80;;;16.70
68588;BMP180;55560;52.174;20.996;2023-06-14T06:18:31;100632.60;;;16.90
68588;BMP180;55560;52.174;20.996;2023-06-14T06:20:58;100631.80;;;17.10
68588;BMP180;55560;52.174;20.996;2023-06-14T06:23:24;100633.20;;;17.20
68588;BMP180;55560;52.174;20.996;2023-06-14T06:25:51;100633.80;;;17.20
68588;BMP180;55560;52.174;20.996;2023-06-14T06:28:18;100639.80;;;17.20
68588;BMP180;55560;52.174;20.996;2023-06-14T06:30:45;100639.20;;;17.20
68588;BMP180;55560;52.174;20.996;2023-06-14T06:33:12;100636.20;;;17.20
68588;BMP180;55560;52.174;20.996;2023-06-14T06:35:40;100643.40;;;17.30
68588;BMP180;55560;52.174;20.996;2023-06-14T06:38:06;100646.40;;;17.30
68588;BMP180;55560;52.174;20.996;2023-06-14T06:40:33;100644.80;;;17.40
68588;BMP180;55560;52.174;20.996;2023-06-14T06:42:59;100647.80;;;17.52
68588;BMP180;55560;52.174;20.996;2023-06-14T06:45:27;100647.00;;;17.60
68588;BMP180;55560;52.174;20.996;2023-06-14T06:47:54;100647.40;;;17.60
68588;BMP180;55560;52.174;20.996;2023-06-14T06:50:22;100649.40;;;17.70
68588;BMP180;55560;52.174;20.996;2023-06-14T06:52:51;100642.40;;;17.70
68588;BMP180;55560;52.174;20.996;2023-06-14T06:55:20;100646.40;;;17.80
68588;BMP180;55560;52.174;20.996;2023-06-14T06:57:47;100644.60;;;17.80
68588;BMP180;55560;52.174;20.996;2023-06-14T07:00:14;100641.60;;;17.74
68588;BMP180;55560;52.174;20.996;2023-06-14T07:02:41;100645.40;;;17.70
68588;BMP180;55560;52.174;20.996;2023-06-14T07:05:08;100644.00;;;17.72
68588;BMP180;55560;52.174;20.996;2023-06-14T07:07:35;100652.40;;;17.80
68588;BMP180;55560;52.174;20.996;2023-06-14T07:10:03;100653.80;;;17.90
68588;BMP180;55560;52.174;20.996;2023-06-14T07:12:32;100659.60;;;17.90
68588;BMP180;55560;52.174;20.996;2023-06-14T07:15:02;100664.60;;;18.00
68588;BMP180;55560;52.174;20.996;2023-06-14T07:17:29;100668.00;;;18.10
68588;BMP180;55560;52.174;20.996;2023-06-14T07:19:56;100663.80;;;18.10
68588;BMP180;55560;52.174;20.996;2023-06-14T07:22:22;100662.40;;;18.10
68588;BMP180;55560;52.174;20.996;2023-06-14T07:24:49;100661.00;;;18.16
68588;BMP180;55560;52.174;20.996;2023-06-14T07:27:16;100664.20;;;18.20
68588;BMP180;55560;52.174;20.996;2023-06-14T07:29:43;100668.40;;;18.26
68588;BMP180;55560;52.174;20.996;2023-06-14T07:32:09;100667.40;;;18.10
68588;BMP180;55560;52.174;20.996;2023-06-14T07:34:36;100675.00;;;18.10
68588;BMP180;55560;52.174;20.996;2023-06-14T07:37:04;100676.40;;;18.10
68588;BMP180;55560;52.174;20.996;2023-06-14T07:39:31;100665.60;;;18.10
68588;BMP180;55560;52.174;20.996;2023-06-14T07:41:58;100670.00;;;18.10
68588;BMP180;55560;52.174;20.996;2023-06-14T07:44:24;100667.60;;;18.00
68588;BMP180;55560;52.174;20.996;2023-06-14T07:46:51;100669.60;;;18.10
68588;BMP180;55560;52.174;20.996;2023-06-14T07:49:20;100668.40;;;18.10
68588;BMP180;55560;52.174;20.996;2023-06-14T07:51:46;100670.80;;;18.20
68588;BMP180;55560;52.174;20.996;2023-06-14T07:54:14;100673.20;;;18.30
68588;BMP180;55560;52.174;20.996;2023-06-14T07:56:41;100671.20;;;18.30
68588;BMP180;55560;52.174;20.996;2023-06-14T07:59:10;100676.60;;;18.40
68588;BMP180;55560;52.174;20.996;2023-06-14T08:01:37;100675.40;;;18.40
68588;BMP180;55560;52.174;20.996;2023-06-14T08:04:04;100673.40;;;18.40
68588;BMP180;55560;52.174;20.996;2023-06-14T08:06:31;100678.40;;;18.40
68588;BMP180;55560;52.174;20.996;2023-06-14T08:08:59;100681.60;;;18.40
68588;BMP180;55560;52.174;20.996;2023-06-14T08:11:27;100681.20;;;18.40
68588;BMP180;55560;52.174;20.996;2023-06-14T08:13:54;100681.20;;;18.40
68588;BMP180;55560;52.174;20.996;2023-06-14T08:16:21;100683.00;;;18.42
68588;BMP180;55560;52.174;20.996;2023-06-14T08:18:48;100682.40;;;18.50
68588;BMP180;55560;52.174;20.996;2023-06-14T08:21:15;100684.60;;;18.50
68588;BMP180;55560;52.174;20.996;2023-06-14T08:23:42;100689.40;;;18.60
68588;BMP180;55560;52.174;20.996;2023-06-14T08:26:11;100689.60;;;18.60
68588;BMP180;55560;52.174;20.996;2023-06-14T08:28:38;100688.60;;;18.62
68588;BMP180;55560;52.174;20.996;2023-06-14T08:31:05;100688.20;;;18.60
68588;BMP180;55560;52.174;20.996;2023-06-14T08:33:32;100691.80;;;18.70
68588;BMP180;55560;52.174;20.996;2023-06-14T08:36:00;100688.40;;;18.70
68588;BMP180;55560;52.174;20.996;2023-06-14T08:38:27;100682.60;;;18.70
68588;BMP180;55560;52.174;20.996;2023-06-14T08:40:57;100679.60;;;18.80
68588;BMP180;55560;52.174;20.996;2023-06-14T08:43:25;100674.80;;;18.94
68588;BMP180;55560;52.174;20.996;2023-06-14T08:46:00;100677.80;;;19.10
68588;BMP180;55560;52.174;20.996;2023-06-14T08:48:30;100674.00;;;19.22
68588;BMP180;55560;52.174;20.996;2023-06-14T08:51:01;100672.40;;;19.38
68588;BMP180;55560;52.174;20.996;2023-06-14T08:53:31;100669.80;;;19.40
68588;BMP180;55560;52.174;20.996;2023-06-14T08:56:05;100670.40;;;19.40
68588;BMP180;55560;52.174;20.996;2023-06-14T08:58:32;100667.20;;;19.50
68588;BMP180;55560;52.174;20.996;2023-06-14T09:01:01;100667.20;;;19.60
68588;BMP180;55560;52.174;20.996;2023-06-14T09:03:28;100668.80;;;19.70
68588;BMP180;55560;52.174;20.996;2023-06-14T09:05:57;100668.40;;;19.90
68588;BMP180;55560;52.174;20.996;2023-06-14T09:08:29;100667.40;;;20.00
68588;BMP180;55560;52.174;20.996;2023-06-14T09:10:57;100663.80;;;20.14
68588;BMP180;55560;52.174;20.996;2023-06-14T09:13:24;100661.40;;;20.26
68588;BMP180;55560;52.174;20.996;2023-06-14T09:15:54;100668.80;;;20.30
68588;BMP180;55560;52.174;20.996;2023-06-14T09:18:21;100671.40;;;20.40
68588;BMP180;55560;52.174;20.996;2023-06-14T09:20:48;100681.00;;;20.40
68588;BMP180;55560;52.174;20.996;2023-06-14T09:23:20;100682.20;;;20.40
68588;BMP180;55560;52.174;20.996;2023-06-14T09:25:47;100679.20;;;20.50
68588;BMP180;55560;52.174;20.996;2023-06-14T09:28:14;100680.20;;;20.50
68588;BMP180;55560;52.174;20.996;2023-06-14T09:30:41;100678.00;;;20.40
68588;BMP180;55560;52.174;20.996;2023-06-14T09:33:09;100675.80;;;20.40
68588;BMP180;55560;52.174;20.996;2023-06-14T09:35:36;100676.20;;;20.30
68588;BMP180;55560;52.174;20.996;2023-06-14T09:38:03;100675.40;;;20.30
68588;BMP180;55560;52.174;20.996;2023-06-14T09:40:34;100677.80;;;20.26
68588;BMP180;55560;52.174;20.996;2023-06-14T09:43:06;100677.00;;;20.20
68588;BMP180;55560;52.174;20.996;2023-06-14T09:45:33;100675.00;;;20.18
68588;BMP180;55560;52.174;20.996;2023-06-14T09:48:00;100674.60;;;20.10
68588;BMP180;55560;52.174;20.996;2023-06-14T09:50:34;100675.40;;;20.10
68588;BMP180;55560;52.174;20.996;2023-06-14T09:53:07;100673.00;;;20.10
68588;BMP180;55560;52.174;20.996;2023-06-14T09:55:37;100671.80;;;20.10
68588;BMP180;55560;52.174;20.996;2023-06-14T09:58:07;100675.00;;;20.10
68588;BMP180;55560;52.174;20.996;2023-06-14T10:00:36;100672.80;;;20.10
68588;BMP180;55560;52.174;20.996;2023-06-14T10:03:13;100670.20;;;20.10
68588;BMP180;55560;52.174;20.996;2023-06-14T10:05:45;100664.40;;;20.10
68588;BMP180;55560;52.174;20.996;2023-06-14T10:08:15;100664.80;;;20.10
68588;BMP180;55560;52.174;20.996;2023-06-14T10:10:43;100663.80;;;20.10
68588;BMP180;55560;52.174;20.996;2023-06-14T10:13:12;100663.00;;;20.10
68588;BMP180;55560;52.174;20.996;2023-06-14T10:20:57;100671.00;;;20.20
68588;BMP180;55560;52.174;20.996;2023-06-14T10:23:26;100670.00;;;20.30
68588;BMP180;55560;52.174;20.996;2023-06-14T10:25:57;100671.40;;;20.46
68588;BMP180;55560;52.174;20.996;2023-06-14T10:28:23;100667.00;;;20.70
68588;BMP180;55560;52.174;20.996;2023-06-14T10:31:11;100662.20;;;20.80
68588;BMP180;55560;52.174;20.996;2023-06-14T10:33:55;100665.20;;;20.90
68588;BMP180;55560;52.174;20.996;2023-06-14T10:41:29;100659.80;;;21.10
68588;BMP180;55560;52.174;20.996;2023-06-14T10:46:55;100652.60;;;21.30
68588;BMP180;55560;52.174;20.996;2023-06-14T10:52:28;100652.60;;;21.60
68588;BMP180;55560;52.174;20.996;2023-06-14T10:55:08;100650.20;;;21.70
68588;BMP180;55560;52.174;20.996;2023-06-14T10:57:45;100645.80;;;21.80
68588;BMP180;55560;52.174;20.996;2023-06-14T11:00:21;100651.40;;;21.70
68588;BMP180;55560;52.174;20.996;2023-06-14T11:03:18;100652.20;;;21.80
68588;BMP180;55560;52.174;20.996;2023-06-14T11:05:58;100653.00;;;21.80
68588;BMP180;55560;52.174;20.996;2023-06-14T11:09:03;100644.00;;;21.90
68588;BMP180;55560;52.174;20.996;2023-06-14T11:11:36;100646.00;;;22.00
68588;BMP180;55560;52.174;20.996;2023-06-14T11:14:05;100645.20;;;21.90
68588;BMP180;55560;52.174;20.996;2023-06-14T11:16:32;100647.00;;;21.80
68588;BMP180;55560;52.174;20.996;2023-06-14T11:19:03;100643.40;;;21.70
68588;BMP180;55560;52.174;20.996;2023-06-14T11:21:32;100643.20;;;21.70
68588;BMP180;55560;52.174;20.996;2023-06-14T11:24:00;100649.00;;;21.70
68588;BMP180;55560;52.174;20.996;2023-06-14T11:26:31;100647.80;;;21.70
68588;BMP180;55560;52.174;20.996;2023-06-14T11:29:01;100652.20;;;21.60
68588;BMP180;55560;52.174;20.996;2023-06-14T11:31:28;100652.20;;;21.60
68588;BMP180;55560;52.174;20.996;2023-06-14T11:34:00;100651.60;;;21.60
68588;BMP180;55560;52.174;20.996;2023-06-14T11:36:33;100648.00;;;21.50
68588;BMP180;55560;52.174;20.996;2023-06-14T11:39:03;100651.40;;;21.40
68588;BMP180;55560;52.174;20.996;2023-06-14T11:41:44;100656.60;;;21.40
68588;BMP180;55560;52.174;20.996;2023-06-14T11:44:11;100654.80;;;21.32
68588;BMP180;55560;52.174;20.996;2023-06-14T11:46:39;100655.60;;;21.30
68588;BMP180;55560;52.174;20.996;2023-06-14T11:49:07;100656.40;;;21.30
68588;BMP180;55560;52.174;20.996;2023-06-14T11:51:35;100657.00;;;21.40
68588;BMP180;55560;52.174;20.996;2023-06-14T11:54:03;100659.60;;;21.42
68588;BMP180;55560;52.174;20.996;2023-06-14T11:56:32;100659.80;;;21.50
68588;BMP180;55560;52.174;20.996;2023-06-14T11:59:03;100654.60;;;21.50
68588;BMP180;55560;52.174;20.996;2023-06-14T12:01:32;100653.80;;;21.40
68588;BMP180;55560;52.174;20.996;2023-06-14T12:03:59;100650.40;;;21.30
68588;BMP180;55560;52.174;20.996;2023-06-14T12:06:29;100648.20;;;21.30
68588;BMP180;55560;52.174;20.996;2023-06-14T12:08:59;100641.20;;;21.22
68588;BMP180;55560;52.174;20.996;2023-06-14T12:11:33;100643.60;;;21.30
68588;BMP180;55560;52.174;20.996;2023-06-14T12:13:59;100634.00;;;21.30
68588;BMP180;55560;52.174;20.996;2023-06-14T12:16:38;100636.20;;;21.40
68588;BMP180;55560;52.174;20.996;2023-06-14T12:19:16;100642.00;;;21.50
68588;BMP180;55560;52.174;20.996;2023-06-14T12:21:46;100634.80;;;21.50
68588;BMP180;55560;52.174;20.996;2023-06-14T12:24:15;100629.60;;;21.60
68588;BMP180;55560;52.174;20.996;2023-06-14T12:26:42;100639.80;;;21.60
68588;BMP180;55560;52.174;20.996;2023-06-14T12:29:09;100634.40;;;21.60
68588;BMP180;55560;52.174;20.996;2023-06-14T12:31:36;100632.20;;;21.60
68588;BMP180;55560;52.174;20.996;2023-06-14T12:34:03;100637.80;;;21.70
68588;BMP180;55560;52.174;20.996;2023-06-14T12:36:30;100629.00;;;21.80
68588;BMP180;55560;52.174;20.996;2023-06-14T12:38:58;100628.80;;;21.84
68588;BMP180;55560;52.174;20.996;2023-06-14T12:41:25;100627.00;;;22.00
68588;BMP180;55560;52.174;20.996;2023-06-14T12:43:53;100635.80;;;21.94
68588;BMP180;55560;52.174;20.996;2023-06-14T12:46:20;100631.60;;;21.94
68588;BMP180;55560;52.174;20.996;2023-06-14T12:48:47;100630.60;;;22.06
68588;BMP180;55560;52.174;20.996;2023-06-14T12:51:13;100628.40;;;22.10
68588;BMP180;55560;52.174;20.996;2023-06-14T12:53:41;100626.80;;;22.00
68588;BMP180;55560;52.174;20.996;2023-06-14T12:56:08;100625.80;;;22.00
68588;BMP180;55560;52.174;20.996;2023-06-14T12:58:35;100622.80;;;22.10
68588;BMP180;55560;52.174;20.996;2023-06-14T13:01:01;100621.00;;;22.20
68588;BMP180;55560;52.174;20.996;2023-06-14T13:03:28;100621.40;;;22.20
68588;BMP180;55560;52.174;20.996;2023-06-14T13:05:55;100618.00;;;22.10
68588;BMP180;55560;52.174;20.996;2023-06-14T13:08:22;100618.80;;;22.30
68588;BMP180;55560;52.174;20.996;2023-06-14T13:10:51;100621.60;;;22.30
68588;BMP180;55560;52.174;20.996;2023-06-14T13:13:20;100617.80;;;22.50
68588;BMP180;55560;52.174;20.996;2023-06-14T13:15:47;100622.80;;;22.60
68588;BMP180;55560;52.174;20.996;2023-06-14T13:18:16;100614.40;;;22.62
68588;BMP180;55560;52.174;20.996;2023-06-14T13:20:43;100612.40;;;22.50
68588;BMP180;55560;52.174;20.996;2023-06-14T13:23:09;100616.40;;;22.60
68588;BMP180;55560;52.174;20.996;2023-06-14T13:25:37;100617.20;;;22.60
68588;BMP180;55560;52.174;20.996;2023-06-14T13:28:05;100615.20;;;22.60
68588;BMP180;55560;52.174;20.996;2023-06-14T13:30:33;100618.60;;;22.80
68588;BMP180;55560;52.174;20.996;2023-06-14T13:33:01;100619.00;;;22.90
68588;BMP180;55560;52.174;20.996;2023-06-14T13:35:29;100617.60;;;23.00
68588;BMP180;55560;52.174;20.996;2023-06-14T13:37:55;100617.20;;;23.10
68588;BMP180;55560;52.174;20.996;2023-06-14T13:40:22;100612.60;;;23.10
68588;BMP180;55560;52.174;20.996;2023-06-14T13:42:48;100603.60;;;23.20
68588;BMP180;55560;52.174;20.996;2023-06-14T13:45:18;100606.00;;;23.30
68588;BMP180;55560;52.174;20.996;2023-06-14T13:47:45;100605.00;;;23.46
68588;BMP180;55560;52.174;20.996;2023-06-14T13:50:14;100610.00;;;23.70
68588;BMP180;55560;52.174;20.996;2023-06-14T13:52:42;100602.80;;;23.90
68588;BMP180;55560;52.174;20.996;2023-06-14T13:55:09;100604.20;;;24.20
68588;BMP180;55560;52.174;20.996;2023-06-14T13:57:36;100596.80;;;24.70
68588;BMP180;55560;52.174;20.996;2023-06-14T14:00:03;100595.40;;;25.44
68588;BMP180;55560;52.174;20.996;2023-06-14T14:02:38;100603.60;;;26.14
68588;BMP180;55560;52.174;20.996;2023-06-14T14:05:09;100607.80;;;26.86
68588;BMP180;55560;52.174;20.996;2023-06-14T14:07:35;100601.80;;;27.56
68588;BMP180;55560;52.174;20.996;2023-06-14T14:10:03;100602.60;;;28.00